SWA112 KHOU-MROC
Flight info
| Callsign | SWA112 |
|---|---|
| Flight time | N/A |
| Altitude | 35000 |
| Route | PEECE6 ANKRR L208 DUTNA UL208 MID UB753 BZE UZ512 LIB BARRA3L |
| Aircraft | B38M/M-SDE1FGHILORVWXY/HB1 |
Departure
| Time | 2026-05-03 23:31 |
|---|---|
| Airport | William P. Hobby Airport (KHOU) |
Arrival
| Time | N/A |
|---|---|
| Airport | Juan Santamaría International Airport (MROC) |
| Time | Latitude | Longitude | Altitude | Speed | Heading |
|---|---|---|---|---|---|
| 2026-05-03 23:05 | 29.65263 | -95.27921 | 54 ft | 0 kts | 144° |
| 2026-05-03 23:22 | 29.65265 | -95.27923 | 54 ft | 2 kts | 144° |
| 2026-05-03 23:22 | 29.65278 | -95.27934 | 49 ft | 2 kts | 145° |
| 2026-05-03 23:22 | 29.65295 | -95.27943 | 54 ft | 3 kts | 175° |
| 2026-05-03 23:23 | 29.65313 | -95.27939 | 50 ft | 3 kts | 209° |
| 2026-05-03 23:23 | 29.65326 | -95.27929 | 52 ft | 1 kts | 224° |
| 2026-05-03 23:23 | 29.65327 | -95.27927 | 50 ft | 2 kts | 224° |
| 2026-05-03 23:26 | 29.65326 | -95.27928 | 53 ft | 1 kts | 224° |
| 2026-05-03 23:26 | 29.65323 | -95.27932 | 52 ft | 0 kts | 224° |
| 2026-05-03 23:27 | 29.65321 | -95.27934 | 51 ft | 1 kts | 224° |
| 2026-05-03 23:27 | 29.65310 | -95.27947 | 53 ft | 3 kts | 224° |
| 2026-05-03 23:27 | 29.65288 | -95.27971 | 54 ft | 6 kts | 225° |
| 2026-05-03 23:27 | 29.65252 | -95.28013 | 54 ft | 9 kts | 225° |
| 2026-05-03 23:28 | 29.65222 | -95.28082 | 51 ft | 10 kts | 271° |
| 2026-05-03 23:28 | 29.65266 | -95.28157 | 51 ft | 13 kts | 314° |
| 2026-05-03 23:28 | 29.65315 | -95.28227 | 52 ft | 9 kts | 277° |
| 2026-05-03 23:28 | 29.65298 | -95.28302 | 54 ft | 11 kts | 250° |
| 2026-05-03 23:29 | 29.65292 | -95.28321 | 52 ft | 2 kts | 250° |
| 2026-05-03 23:29 | 29.65280 | -95.28345 | 53 ft | 6 kts | 229° |
| 2026-05-03 23:29 | 29.65227 | -95.28418 | 52 ft | 16 kts | 249° |
| 2026-05-03 23:29 | 29.65212 | -95.28542 | 54 ft | 14 kts | 229° |
| 2026-05-03 23:30 | 29.65114 | -95.28560 | 51 ft | 15 kts | 159° |
| 2026-05-03 23:30 | 29.64908 | -95.28332 | 53 ft | 85 kts | 133° |
| 2026-05-03 23:30 | 29.64299 | -95.27599 | 51 ft | 166 kts | 134° |
| 2026-05-03 23:30 | 29.63340 | -95.26537 | 477 ft | 209 kts | 138° |
| 2026-05-03 23:31 | 29.62159 | -95.25337 | 1348 ft | 245 kts | 142° |
| 2026-05-03 23:31 | 29.60766 | -95.23998 | 2138 ft | 273 kts | 141° |
| 2026-05-03 23:31 | 29.59366 | -95.22619 | 3781 ft | 258 kts | 139° |
| 2026-05-03 23:31 | 29.58003 | -95.21272 | 5091 ft | 262 kts | 139° |
| 2026-05-03 23:32 | 29.56582 | -95.19885 | 6094 ft | 275 kts | 139° |
| 2026-05-03 23:32 | 29.55098 | -95.18446 | 7187 ft | 282 kts | 140° |
| 2026-05-03 23:32 | 29.53575 | -95.16977 | 8182 ft | 291 kts | 140° |
| 2026-05-03 23:32 | 29.52009 | -95.15472 | 9217 ft | 296 kts | 140° |
| 2026-05-03 23:33 | 29.50413 | -95.13940 | 10228 ft | 302 kts | 141° |
| 2026-05-03 23:33 | 29.48762 | -95.12352 | 10896 ft | 319 kts | 139° |
| 2026-05-03 23:33 | 29.47156 | -95.10494 | 11509 ft | 335 kts | 134° |
| 2026-05-03 23:33 | 29.45520 | -95.08531 | 12285 ft | 345 kts | 134° |
| 2026-05-03 23:34 | 29.43840 | -95.06538 | 13190 ft | 350 kts | 135° |
| 2026-05-03 23:34 | 29.42129 | -95.04524 | 14081 ft | 354 kts | 135° |
| 2026-05-03 23:34 | 29.40394 | -95.02491 | 14835 ft | 361 kts | 135° |
| 2026-05-03 23:34 | 29.38617 | -95.00411 | 15516 ft | 369 kts | 135° |
| 2026-05-03 23:35 | 29.36803 | -94.98290 | 16213 ft | 376 kts | 135° |
| 2026-05-03 23:35 | 29.34957 | -94.96136 | 16874 ft | 383 kts | 135° |
| 2026-05-03 23:35 | 29.33073 | -94.93935 | 17522 ft | 390 kts | 135° |
| 2026-05-03 23:35 | 29.31155 | -94.91699 | 18161 ft | 397 kts | 135° |
| 2026-05-03 23:36 | 29.29204 | -94.89425 | 18746 ft | 403 kts | 135° |
| 2026-05-03 23:36 | 29.27216 | -94.87128 | 19310 ft | 408 kts | 138° |
| 2026-05-03 23:36 | 29.25133 | -94.84908 | 19887 ft | 412 kts | 139° |
| 2026-05-03 23:36 | 29.23021 | -94.82656 | 20453 ft | 417 kts | 139° |
| 2026-05-03 23:37 | 29.20891 | -94.80376 | 21006 ft | 422 kts | 139° |
| 2026-05-03 23:37 | 29.18770 | -94.78104 | 21540 ft | 426 kts | 139° |
| 2026-05-03 23:37 | 29.16562 | -94.75739 | 22094 ft | 431 kts | 140° |
| 2026-05-03 23:37 | 29.14392 | -94.73416 | 22621 ft | 435 kts | 140° |
| 2026-05-03 23:38 | 29.12172 | -94.71041 | 23143 ft | 440 kts | 140° |
| 2026-05-03 23:38 | 29.09925 | -94.68639 | 23658 ft | 444 kts | 140° |
| 2026-05-03 23:38 | 29.07653 | -94.66210 | 24104 ft | 449 kts | 140° |
| 2026-05-03 23:38 | 29.05361 | -94.63763 | 24511 ft | 453 kts | 141° |
| 2026-05-03 23:39 | 29.03048 | -94.61294 | 24928 ft | 457 kts | 141° |
| 2026-05-03 23:39 | 29.00711 | -94.58802 | 25340 ft | 462 kts | 141° |
| 2026-05-03 23:39 | 28.98353 | -94.56288 | 25742 ft | 466 kts | 141° |
| 2026-05-03 23:39 | 28.95975 | -94.53755 | 26140 ft | 470 kts | 141° |
| 2026-05-03 23:40 | 28.93570 | -94.51195 | 26531 ft | 474 kts | 141° |
| 2026-05-03 23:40 | 28.91149 | -94.48619 | 26931 ft | 478 kts | 141° |
| 2026-05-03 23:40 | 28.88710 | -94.46027 | 27322 ft | 482 kts | 141° |
| 2026-05-03 23:40 | 28.86249 | -94.43413 | 27708 ft | 485 kts | 141° |
| 2026-05-03 23:41 | 28.83769 | -94.40780 | 28087 ft | 489 kts | 142° |
| 2026-05-03 23:41 | 28.81266 | -94.38125 | 28457 ft | 493 kts | 142° |
| 2026-05-03 23:41 | 28.78751 | -94.35458 | 28837 ft | 496 kts | 142° |